Time;durP1;ratioP1;P1;durP2;ratioP2;P2;SDS_P1;SDS_P2;PMS_P1;PMS_P2;Temp;Humidity;BMP_temperature;BMP_pressure;BME280_temperature;BME280_humidity;BME280_pressure;Samples;Min_cycle;Max_cycle;Signal;HPM_P1;HPM_P2
2023/04/23 00:00:14;;;;;;;4.38;2.80;;;18.10;98.90;;;;;;5071780;28;20467;-70
2023/04/23 00:02:43;;;;;;;4.90;2.42;;;18.00;98.80;;;;;;5071610;28;20093;-71
2023/04/23 00:05:11;;;;;;;4.45;2.80;;;18.00;98.70;;;;;;5070555;28;20044;-70
2023/04/23 00:07:37;;;;;;;5.65;2.92;;;18.00;98.60;;;;;;5072054;28;20017;-69
2023/04/23 00:10:04;;;;;;;5.78;2.70;;;18.00;98.70;;;;;;5070424;28;20040;-70
2023/04/23 00:12:31;;;;;;;7.50;2.80;;;18.10;98.70;;;;;;5071503;28;20050;-70
2023/04/23 00:14:57;;;;;;;3.28;2.22;;;18.10;98.40;;;;;;5071383;28;20138;-69
2023/04/23 00:17:23;;;;;;;5.35;2.50;;;18.20;98.10;;;;;;5071367;28;20043;-70
2023/04/23 00:19:50;;;;;;;6.85;2.92;;;18.10;98.40;;;;;;5071352;28;20020;-70
2023/04/23 00:22:16;;;;;;;4.93;2.58;;;18.00;98.40;;;;;;5070692;28;20100;-69
2023/04/23 00:24:42;;;;;;;4.40;2.80;;;18.10;98.10;;;;;;5071173;28;20478;-71
2023/04/23 00:27:11;;;;;;;4.57;2.67;;;18.10;98.00;;;;;;5071179;28;20039;-70
2023/04/23 00:29:37;;;;;;;4.15;2.60;;;18.10;98.40;;;;;;5071131;28;20162;-69
2023/04/23 00:32:04;;;;;;;5.45;2.80;;;18.10;98.70;;;;;;5071432;28;20059;-71
2023/04/23 00:34:29;;;;;;;4.38;2.70;;;18.00;98.20;;;;;;5071632;28;20020;-70
2023/04/23 00:36:55;;;;;;;4.75;2.53;;;18.00;98.40;;;;;;5069972;28;20490;-71
2023/04/23 00:39:21;;;;;;;4.22;2.47;;;17.80;99.00;;;;;;5071162;28;20028;-69
2023/04/23 00:41:47;;;;;;;2.85;2.30;;;18.00;98.50;;;;;;5070919;28;20029;-70
2023/04/23 00:44:13;;;;;;;4.93;3.05;;;17.80;99.00;;;;;;5070993;28;20493;-69
2023/04/23 00:46:39;;;;;;;4.78;2.55;;;17.90;99.00;;;;;;5070864;28;20025;-68
2023/04/23 00:49:05;;;;;;;2.95;2.30;;;17.90;98.60;;;;;;5071551;28;20016;-70
2023/04/23 00:51:33;;;;;;;6.50;3.05;;;18.00;98.70;;;;;;5070847;28;20043;-70
2023/04/23 00:53:59;;;;;;;5.03;3.10;;;18.00;98.50;;;;;;5070990;28;20032;-71
2023/04/23 00:56:26;;;;;;;4.63;2.72;;;18.00;98.40;;;;;;5070787;28;20039;-70
2023/04/23 00:58:52;;;;;;;4.30;2.35;;;18.00;98.50;;;;;;5069733;28;20166;-71
2023/04/23 01:01:20;;;;;;;4.40;2.85;;;18.00;98.60;;;;;;5071137;28;20024;-69
2023/04/23 01:03:48;;;;;;;5.00;3.08;;;17.90;98.80;;;;;;5070775;28;20416;-70
2023/04/23 01:06:15;;;;;;;3.40;2.53;;;17.90;98.60;;;;;;5070977;28;20370;-69
2023/04/23 01:08:43;;;;;;;3.92;2.72;;;17.90;98.90;;;;;;5070799;28;20052;-70
2023/04/23 01:11:09;;;;;;;6.95;2.92;;;17.90;98.70;;;;;;5070627;28;20041;-69
2023/04/23 01:13:35;;;;;;;4.63;2.90;;;17.80;99.00;;;;;;5071019;28;20037;-71
2023/04/23 01:16:01;;;;;;;3.50;2.97;;;17.80;99.00;;;;;;5070629;28;20024;-69
2023/04/23 01:18:28;;;;;;;5.88;3.10;;;17.80;98.70;;;;;;5070618;28;20028;-71
2023/04/23 01:20:54;;;;;;;5.90;2.95;;;17.80;98.60;;;;;;5070607;28;20028;-69
2023/04/23 01:23:20;;;;;;;4.18;3.08;;;17.60;99.40;;;;;;5069568;28;20450;-69
2023/04/23 01:25:46;;;;;;;4.68;3.55;;;17.30;99.90;;;;;;5070481;28;20460;-69
2023/04/23 01:28:12;;;;;;;7.38;4.97;;;17.20;99.90;;;;;;5070953;28;20017;-69
2023/04/23 01:30:38;;;;;;;5.50;4.55;;;17.10;99.90;;;;;;5069806;28;20084;-69
2023/04/23 01:33:05;;;;;;;15.50;6.45;;;17.00;99.90;;;;;;5070469;28;20478;-69
2023/04/23 01:35:32;;;;;;;9.50;6.90;;;16.70;99.90;;;;;;5075619;28;20039;-70
2023/04/23 01:37:59;;;;;;;9.77;6.30;;;16.60;99.90;;;;;;5089583;28;20261;-68
2023/04/23 01:40:25;;;;;;;8.05;6.70;;;16.50;99.90;;;;;;5090424;28;20444;-69
2023/04/23 01:42:51;;;;;;;9.95;7.13;;;16.40;99.90;;;;;;5089527;28;20036;-69
2023/04/23 01:45:18;;;;;;;15.85;7.50;;;16.30;99.90;;;;;;5090483;28;20108;-69
2023/04/23 01:47:45;;;;;;;12.40;8.50;;;16.50;99.90;;;;;;5090591;28;20480;-68
2023/04/23 01:50:11;;;;;;;12.80;9.20;;;16.60;99.90;;;;;;5090422;28;20471;-68
2023/04/23 01:52:37;;;;;;;13.63;9.65;;;16.30;99.90;;;;;;5090830;28;20246;-68
2023/04/23 01:55:03;;;;;;;16.08;10.60;;;16.30;99.90;;;;;;5090091;28;20483;-69
2023/04/23 01:57:29;;;;;;;17.25;11.25;;;16.40;99.90;;;;;;5090465;28;20774;-70
2023/04/23 02:00:10;;;;;;;15.90;10.35;;;16.00;99.90;;;;;;5090302;28;20054;-68
2023/04/23 02:02:37;;;;;;;16.25;11.52;;;16.10;99.90;;;;;;5089161;28;20032;-69
2023/04/23 02:05:03;;;;;;;20.73;13.25;;;16.00;99.90;;;;;;5090352;28;20086;-69
2023/04/23 02:07:31;;;;;;;20.23;13.07;;;16.00;99.90;;;;;;5090726;28;20020;-69
2023/04/23 02:09:57;;;;;;;20.17;12.95;;;15.90;99.90;;;;;;5091183;28;20103;-70
2023/04/23 02:12:23;;;;;;;19.80;13.90;;;15.80;99.90;;;;;;5094134;28;20167;-69
2023/04/23 02:14:49;;;;;;;18.83;13.30;;;15.70;99.90;;;;;;5094253;28;20533;-69
2023/04/23 02:17:15;;;;;;;21.70;14.05;;;15.70;99.90;;;;;;5094178;28;20032;-69
2023/04/23 02:19:40;;;;;;;19.98;13.77;;;15.70;99.90;;;;;;5094166;28;20099;-69
2023/04/23 02:22:06;;;;;;;19.92;12.93;;;15.80;99.90;;;;;;5094311;28;20032;-69
2023/04/23 02:24:32;;;;;;;22.02;14.30;;;15.60;99.90;;;;;;5093732;28;20056;-69
2023/04/23 02:26:58;;;;;;;23.15;14.23;;;15.70;99.90;;;;;;5093808;28;20032;-69
2023/04/23 02:29:24;;;;;;;21.02;15.02;;;15.70;99.90;;;;;;5093823;28;20039;-68
2023/04/23 02:31:49;;;;;;;22.20;15.18;;;15.70;99.90;;;;;;5093461;28;20067;-68
2023/04/23 02:34:15;;;;;;;21.17;14.02;;;15.70;99.90;;;;;;5094724;28;20458;-69
2023/04/23 02:36:40;;;;;;;21.17;14.95;;;15.50;99.90;;;;;;5092829;28;20028;-69
2023/04/23 02:39:06;;;;;;;23.55;14.93;;;15.60;99.90;;;;;;5093613;28;20036;-68
2023/04/23 02:41:32;;;;;;;24.67;14.90;;;15.60;99.90;;;;;;5092468;28;20028;-69
2023/04/23 02:43:58;;;;;;;24.27;16.15;;;15.60;99.90;;;;;;5093519;28;20028;-69
2023/04/23 02:46:23;;;;;;;22.20;14.90;;;15.50;99.90;;;;;;5093969;28;20110;-68
2023/04/23 02:48:49;;;;;;;23.75;16.02;;;15.60;99.90;;;;;;5093518;28;20043;-69
2023/04/23 02:51:15;;;;;;;26.00;16.05;;;15.60;99.90;;;;;;5093438;28;20047;-69
2023/04/23 02:53:40;;;;;;;25.92;16.35;;;15.60;99.90;;;;;;5093409;28;20031;-70
2023/04/23 02:56:06;;;;;;;23.75;15.77;;;15.60;99.90;;;;;;5093246;28;20032;-69
2023/04/23 02:58:32;;;;;;;30.05;17.30;;;15.40;99.90;;;;;;5093679;28;20017;-69
2023/04/23 03:00:58;;;;;;;29.65;18.15;;;15.00;99.90;;;;;;5093153;28;20032;-71
2023/04/23 03:03:30;;;;;;;25.77;17.23;;;15.10;99.90;;;;;;5093275;28;20349;-67
2023/04/23 03:05:56;;;;;;;28.75;18.42;;;15.20;99.90;;;;;;5093122;28;20043;-67
2023/04/23 03:08:22;;;;;;;26.95;17.40;;;15.20;99.90;;;;;;5093133;28;20113;-68
2023/04/23 03:10:48;;;;;;;25.88;17.20;;;15.00;99.90;;;;;;5093224;28;20509;-68
2023/04/23 03:13:17;;;;;;;27.40;17.23;;;14.90;99.90;;;;;;5093844;28;20016;-69
2023/04/23 03:15:42;;;;;;;29.70;18.08;;;15.10;99.90;;;;;;5091871;28;20032;-70
2023/04/23 03:18:08;;;;;;;26.17;17.02;;;15.10;99.90;;;;;;5092931;28;20059;-68
2023/04/23 03:20:34;;;;;;;27.85;17.48;;;15.20;99.90;;;;;;5091867;28;20073;-68
2023/04/23 03:23:00;;;;;;;27.73;16.98;;;15.20;99.90;;;;;;5091651;28;20056;-67
2023/04/23 03:25:26;;;;;;;25.90;17.23;;;15.00;99.90;;;;;;5093199;28;20020;-67
2023/04/23 03:27:52;;;;;;;25.80;16.45;;;15.00;99.90;;;;;;5092680;28;20032;-69
2023/04/23 03:30:19;;;;;;;30.35;19.05;;;15.10;99.90;;;;;;5092514;28;20028;-69
2023/04/23 03:32:44;;;;;;;27.08;17.98;;;15.20;99.90;;;;;;5092623;28;20043;-69
2023/04/23 03:35:10;;;;;;;27.60;16.75;;;15.30;99.90;;;;;;5092747;28;20028;-69
2023/04/23 03:37:36;;;;;;;29.05;16.88;;;15.30;99.90;;;;;;5092989;28;20063;-68
2023/04/23 03:40:06;;;;;;;27.27;17.73;;;15.30;99.90;;;;;;5092764;28;20089;-70
2023/04/23 03:42:32;;;;;;;29.30;18.45;;;15.20;99.90;;;;;;5091436;28;20354;-69
2023/04/23 03:44:59;;;;;;;28.65;17.30;;;15.10;99.90;;;;;;5092427;28;20477;-69
2023/04/23 03:47:25;;;;;;;29.67;17.67;;;15.20;99.90;;;;;;5092335;28;20450;-69
2023/04/23 03:49:51;;;;;;;25.75;17.63;;;15.30;99.90;;;;;;5092698;28;20331;-70
2023/04/23 03:52:17;;;;;;;25.73;16.98;;;15.10;99.90;;;;;;5092694;28;20484;-69
2023/04/23 03:54:43;;;;;;;27.17;16.85;;;15.00;99.90;;;;;;5091020;28;20035;-70
2023/04/23 03:57:10;;;;;;;25.60;17.85;;;15.00;99.90;;;;;;5091970;28;20107;-69
2023/04/23 03:59:36;;;;;;;27.60;18.05;;;14.90;99.90;;;;;;5090899;28;20485;-68
2023/04/23 04:02:05;;;;;;;28.45;19.27;;;15.00;99.90;;;;;;5090758;28;20031;-70
2023/04/23 04:04:32;;;;;;;29.75;20.05;;;15.00;99.90;;;;;;5091236;28;20020;-68
2023/04/23 04:06:59;;;;;;;31.30;20.23;;;14.80;99.90;;;;;;5091819;28;20482;-68
2023/04/23 04:09:25;;;;;;;38.50;23.30;;;14.90;99.90;;;;;;5091979;28;20042;-68
2023/04/23 04:11:52;;;;;;;36.47;22.58;;;14.70;99.90;;;;;;5091667;28;20412;-71
2023/04/23 04:14:19;;;;;;;37.53;23.02;;;14.90;99.90;;;;;;5091639;28;20036;-69
2023/04/23 04:16:44;;;;;;;35.55;22.73;;;15.00;99.90;;;;;;5092122;28;20032;-67
2023/04/23 04:19:10;;;;;;;39.17;23.83;;;14.80;99.90;;;;;;5092040;28;20109;-69
2023/04/23 04:21:36;;;;;;;39.22;21.70;;;14.70;99.90;;;;;;5091565;28;20043;-68
2023/04/23 04:24:05;;;;;;;37.38;23.48;;;14.70;99.90;;;;;;5090392;28;20410;-67
2023/04/23 04:26:31;;;;;;;38.75;23.27;;;14.80;99.90;;;;;;5091443;28;20416;-69
2023/04/23 04:28:58;;;;;;;41.33;24.52;;;14.80;99.90;;;;;;5091636;28;20016;-68
2023/04/23 04:31:27;;;;;;;38.27;23.00;;;14.70;99.90;;;;;;5091624;28;20016;-67
2023/04/23 04:33:54;;;;;;;38.60;23.38;;;14.70;99.90;;;;;;5091107;28;20055;-67
2023/04/23 04:36:20;;;;;;;39.73;23.23;;;14.70;99.90;;;;;;5091417;28;20028;-67
2023/04/23 04:38:46;;;;;;;36.13;22.15;;;14.70;99.90;;;;;;5091346;28;20257;-67
2023/04/23 04:41:12;;;;;;;41.63;24.55;;;14.60;99.90;;;;;;5091216;28;20461;-68
2023/04/23 04:43:38;;;;;;;41.92;23.15;;;14.20;99.90;;;;;;5091640;28;20020;-67
2023/04/23 04:46:04;;;;;;;39.78;24.00;;;14.30;99.90;;;;;;5091228;28;20577;-68
2023/04/23 04:48:30;;;;;;;39.28;22.40;;;14.20;99.90;;;;;;5090839;28;20115;-68
2023/04/23 04:50:56;;;;;;;37.58;22.55;;;14.30;99.90;;;;;;5091007;28;20036;-67
2023/04/23 04:53:22;;;;;;;42.20;23.75;;;14.10;99.90;;;;;;5091121;28;20137;-67
2023/04/23 04:55:48;;;;;;;43.22;24.27;;;14.20;99.90;;;;;;5090877;28;20095;-69
2023/04/23 04:58:13;;;;;;;41.53;22.48;;;14.10;99.90;;;;;;5091384;28;20495;-68
2023/04/23 05:00:39;;;;;;;46.72;24.23;;;14.00;99.90;;;;;;5090811;28;20032;-70
2023/04/23 05:03:05;;;;;;;39.95;24.00;;;13.90;99.90;;;;;;5090685;28;20123;-69
2023/04/23 05:05:32;;;;;;;39.38;23.45;;;13.80;99.90;;;;;;5090645;28;20036;-69
2023/04/23 05:08:03;;;;;;;40.78;22.50;;;13.80;99.90;;;;;;5090740;28;20107;-68
2023/04/23 05:10:29;;;;;;;40.53;24.35;;;14.00;99.90;;;;;;5091058;28;20035;-69
2023/04/23 05:12:56;;;;;;;42.75;23.20;;;14.00;99.90;;;;;;5090864;28;20032;-68
2023/04/23 05:15:22;;;;;;;43.03;24.20;;;14.10;99.90;;;;;;5089724;28;20024;-68
2023/04/23 05:17:52;;;;;;;43.33;24.63;;;14.00;99.90;;;;;;5090640;28;20032;-68
2023/04/23 05:20:17;;;;;;;42.45;22.80;;;13.90;99.90;;;;;;5090654;28;20063;-67
2023/04/23 05:22:43;;;;;;;42.33;23.17;;;13.90;99.90;;;;;;5090635;28;20445;-68
2023/04/23 05:25:10;;;;;;;37.83;22.88;;;13.90;99.90;;;;;;5089941;28;20258;-67
2023/04/23 05:27:37;;;;;;;39.38;23.63;;;14.00;99.90;;;;;;5089325;28;20032;-68
2023/04/23 05:30:04;;;;;;;43.58;24.42;;;13.80;99.90;;;;;;5089431;28;20042;-68
2023/04/23 05:32:31;;;;;;;43.17;24.65;;;13.70;99.90;;;;;;5090496;28;20040;-68
2023/04/23 05:34:56;;;;;;;44.30;24.70;;;13.90;99.90;;;;;;5090395;28;20404;-68
2023/04/23 05:37:22;;;;;;;42.38;23.65;;;13.90;99.90;;;;;;5090940;28;20050;-68
2023/04/23 05:39:48;;;;;;;39.70;23.08;;;13.80;99.90;;;;;;5090503;28;20024;-69
2023/04/23 05:42:13;;;;;;;41.67;23.40;;;13.70;99.90;;;;;;5090512;28;20044;-68
2023/04/23 05:44:40;;;;;;;42.45;23.50;;;13.80;99.90;;;;;;5089594;28;20024;-68
2023/04/23 05:47:07;;;;;;;43.15;24.83;;;13.80;99.90;;;;;;5094331;28;20052;-69
2023/04/23 05:49:34;;;;;;;41.60;24.20;;;13.70;99.90;;;;;;5094821;28;20027;-69
2023/04/23 05:52:01;;;;;;;42.10;24.38;;;13.80;99.90;;;;;;5094266;28;20265;-68
2023/04/23 05:54:27;;;;;;;39.65;22.65;;;13.80;99.90;;;;;;5094580;28;20449;-68
2023/04/23 05:56:53;;;;;;;42.03;23.38;;;13.90;99.90;;;;;;5094399;28;20389;-67
2023/04/23 05:59:19;;;;;;;42.83;24.38;;;14.00;99.90;;;;;;5094268;28;20028;-68
2023/04/23 06:01:46;;;;;;;39.70;23.50;;;13.90;99.90;;;;;;5094136;28;20028;-68
2023/04/23 06:04:12;;;;;;;40.77;24.23;;;13.90;99.90;;;;;;5094584;28;20028;-68
2023/04/23 06:06:38;;;;;;;38.42;24.58;;;13.70;99.90;;;;;;5094059;28;20062;-67
2023/04/23 06:09:04;;;;;;;42.20;24.73;;;13.70;99.90;;;;;;5094155;28;20032;-69
2023/04/23 06:11:31;;;;;;;38.35;23.25;;;13.70;99.90;;;;;;5094196;28;20191;-68
2023/04/23 06:13:57;;;;;;;39.50;23.45;;;13.80;99.90;;;;;;5092771;28;20061;-68
2023/04/23 06:16:24;;;;;;;40.38;24.23;;;13.80;99.90;;;;;;5093403;28;20111;-68
2023/04/23 06:18:50;;;;;;;46.15;25.63;;;13.70;99.90;;;;;;5093924;28;20032;-68
2023/04/23 06:21:15;;;;;;;41.50;24.80;;;13.70;99.90;;;;;;5093951;28;20039;-68
2023/04/23 06:23:41;;;;;;;43.83;24.95;;;13.70;99.90;;;;;;5093710;28;20025;-67
2023/04/23 06:26:07;;;;;;;43.03;24.63;;;13.80;99.90;;;;;;5093801;28;20107;-69
2023/04/23 06:28:33;;;;;;;47.40;25.08;;;13.70;99.90;;;;;;5094224;28;20062;-68
2023/04/23 06:30:58;;;;;;;40.45;23.73;;;13.90;99.90;;;;;;5093528;28;20039;-68
2023/04/23 06:33:24;;;;;;;41.15;24.73;;;13.90;99.90;;;;;;5093310;28;20456;-66
2023/04/23 06:35:50;;;;;;;42.17;25.17;;;14.00;99.90;;;;;;5092393;28;20039;-69
2023/04/23 06:38:17;;;;;;;41.45;23.73;;;14.10;99.90;;;;;;5093471;28;20052;-69
2023/04/23 06:40:43;;;;;;;44.80;25.52;;;14.10;99.90;;;;;;5093365;28;20020;-69
2023/04/23 06:43:09;;;;;;;41.83;24.67;;;14.10;99.90;;;;;;5093856;28;20042;-70
2023/04/23 06:45:35;;;;;;;41.42;24.65;;;14.10;99.90;;;;;;5093209;28;20088;-70
2023/04/23 06:48:01;;;;;;;39.88;24.35;;;14.10;99.90;;;;;;5093302;28;20028;-69
2023/04/23 06:50:26;;;;;;;42.28;24.52;;;14.30;99.90;;;;;;5093099;28;20086;-68
2023/04/23 06:52:52;;;;;;;42.15;24.65;;;14.50;99.90;;;;;;5093083;28;20054;-68
2023/04/23 06:55:19;;;;;;;41.53;24.42;;;14.40;99.90;;;;;;5094114;28;20139;-69
2023/04/23 06:57:45;;;;;;;37.55;23.20;;;14.40;99.90;;;;;;5092951;28;20040;-68
2023/04/23 07:00:11;;;;;;;41.58;24.35;;;14.40;99.90;;;;;;5093220;28;20031;-69
2023/04/23 07:02:37;;;;;;;43.15;24.92;;;14.60;99.90;;;;;;5092885;28;20056;-69
2023/04/23 07:05:03;;;;;;;42.08;24.27;;;14.80;99.90;;;;;;5094277;28;20466;-69
2023/04/23 07:07:29;;;;;;;42.35;24.70;;;14.60;99.90;;;;;;5093424;28;20031;-68
2023/04/23 07:09:55;;;;;;;46.63;25.02;;;14.70;99.90;;;;;;5092906;28;20024;-68
2023/04/23 07:12:21;;;;;;;40.97;24.92;;;14.90;99.90;;;;;;5091866;28;20025;-68
2023/04/23 07:14:47;;;;;;;37.97;23.10;;;14.90;99.60;;;;;;5092921;28;20035;-68
2023/04/23 07:17:12;;;;;;;42.03;24.15;;;15.10;99.40;;;;;;5091902;28;20035;-69
2023/04/23 07:19:38;;;;;;;39.72;24.33;;;15.30;99.40;;;;;;5091954;28;20024;-69
2023/04/23 07:22:04;;;;;;;38.15;23.23;;;15.60;98.90;;;;;;5092614;28;20044;-69
2023/04/23 07:24:29;;;;;;;42.78;23.70;;;15.90;98.80;;;;;;5093084;28;20365;-69
2023/04/23 07:26:55;;;;;;;40.72;23.88;;;16.00;98.10;;;;;;5092492;28;20086;-70
2023/04/23 07:29:21;;;;;;;39.95;24.63;;;16.20;98.00;;;;;;5093392;28;20058;-69
2023/04/23 07:31:47;;;;;;;37.50;23.15;;;16.30;97.70;;;;;;5092350;28;20465;-68
2023/04/23 07:34:13;;;;;;;37.28;23.05;;;16.50;97.10;;;;;;5093226;28;20087;-68
2023/04/23 07:36:38;;;;;;;39.72;24.45;;;16.40;97.20;;;;;;5092548;28;20033;-68
2023/04/23 07:39:07;;;;;;;40.08;23.58;;;16.90;97.10;;;;;;5077929;28;20095;-69
2023/04/23 07:41:34;;;;;;;39.58;22.92;;;17.40;96.40;;;;;;5072152;28;20028;-71
2023/04/23 07:43:59;;;;;;;37.20;22.27;;;17.60;95.90;;;;;;5071790;28;20171;-70
2023/04/23 07:46:25;;;;;;;36.92;22.95;;;18.10;95.20;;;;;;5072583;28;20067;-69
2023/04/23 07:48:51;;;;;;;34.08;21.67;;;18.70;95.00;;;;;;5071835;28;20024;-72
2023/04/23 07:51:17;;;;;;;35.00;21.70;;;18.80;93.50;;;;;;5071555;28;20032;-71
2023/04/23 07:53:43;;;;;;;35.20;21.65;;;19.50;93.30;;;;;;5071402;28;20032;-70
2023/04/23 07:56:09;;;;;;;33.85;21.05;;;19.60;92.30;;;;;;5071992;28;20025;-69
2023/04/23 07:58:35;;;;;;;31.88;20.88;;;19.90;91.90;;;;;;5071999;28;20024;-70
2023/04/23 08:01:01;;;;;;;29.67;19.48;;;20.00;91.40;;;;;;5071439;28;20403;-69
2023/04/23 08:03:27;;;;;;;30.65;20.70;;;20.20;91.00;;;;;;5070151;28;20124;-69
2023/04/23 08:05:53;;;;;;;28.98;19.17;;;20.50;91.50;;;;;;5070346;28;20420;-69
2023/04/23 08:08:18;;;;;;;30.75;19.58;;;21.40;90.40;;;;;;5070612;28;20062;-68
2023/04/23 08:10:45;;;;;;;29.75;19.35;;;21.70;87.90;;;;;;5071216;28;20025;-68
2023/04/23 08:13:10;;;;;;;26.58;18.80;;;22.40;86.50;;;;;;5071773;28;20024;-70
2023/04/23 08:15:36;;;;;;;27.95;18.70;;;22.80;86.30;;;;;;5071109;28;20382;-71
2023/04/23 08:18:03;;;;;;;25.80;17.27;;;23.80;83.70;;;;;;5071454;28;20044;-71
2023/04/23 08:20:29;;;;;;;25.25;16.40;;;24.60;80.30;;;;;;5071391;28;20036;-70
2023/04/23 08:22:55;;;;;;;25.92;16.65;;;25.70;75.90;;;;;;5071051;28;20414;-72
2023/04/23 08:25:21;;;;;;;22.92;16.45;;;25.90;73.20;;;;;;5072147;28;20099;-71
2023/04/23 08:27:46;;;;;;;23.70;16.50;;;26.10;68.50;;;;;;5071292;28;20121;-73
2023/04/23 08:30:12;;;;;;;21.90;16.27;;;25.70;69.60;;;;;;5069799;28;20036;-72
2023/04/23 08:32:39;;;;;;;22.25;14.93;;;26.50;69.40;;;;;;5070358;28;20037;-72
2023/04/23 08:35:06;;;;;;;20.73;14.68;;;27.00;66.40;;;;;;5070305;28;20035;-71
2023/04/23 08:37:33;;;;;;;18.60;14.85;;;27.40;64.20;;;;;;5070719;28;20022;-72
2023/04/23 08:40:00;;;;;;;19.45;14.55;;;28.00;61.90;;;;;;5070611;28;20083;-71
2023/04/23 08:43:07;;;;;;;19.20;14.38;;;28.30;61.00;;;;;;5070366;28;20024;-71
2023/04/23 08:45:40;;;;;;;20.88;14.55;;;29.00;60.00;;;;;;5070138;28;20024;-68
2023/04/23 08:48:06;;;;;;;20.40;16.13;;;29.20;58.80;;;;;;5069982;28;20040;-67
2023/04/23 08:50:32;;;;;;;18.52;13.98;;;29.10;57.10;;;;;;5070078;28;20040;-70
2023/04/23 08:52:58;;;;;;;16.92;11.70;;;29.50;57.00;;;;;;5069012;28;20318;-73
2023/04/23 08:55:24;;;;;;;18.02;12.00;;;29.30;54.80;;;;;;5070455;28;20047;-70
2023/04/23 08:57:50;;;;;;;16.45;12.07;;;29.60;55.60;;;;;;5070090;28;20025;-68
2023/04/23 09:00:18;;;;;;;16.63;12.75;;;29.90;53.50;;;;;;5069949;28;20385;-68
2023/04/23 09:02:46;;;;;;;18.23;13.73;;;30.60;52.00;;;;;;5070117;28;20025;-68
2023/04/23 09:05:13;;;;;;;16.80;11.88;;;30.30;50.90;;;;;;5069856;28;20024;-69
2023/04/23 09:07:40;;;;;;;16.45;12.05;;;30.30;51.30;;;;;;5069156;28;20381;-70
2023/04/23 09:10:08;;;;;;;16.25;12.70;;;29.70;50.10;;;;;;5069207;28;20429;-72
2023/04/23 09:12:35;;;;;;;16.20;11.52;;;30.50;50.80;;;;;;5070093;28;20032;-70
2023/04/23 09:15:02;;;;;;;15.13;11.52;;;31.10;49.00;;;;;;5069941;28;20021;-71
2023/04/23 09:17:29;;;;;;;16.13;11.67;;;31.20;48.90;;;;;;5069843;28;20041;-69
2023/04/23 09:19:55;;;;;;;14.82;10.48;;;31.20;48.80;;;;;;5087677;28;20024;-71
2023/04/23 09:22:46;;;;;;;14.13;9.63;;;31.40;48.20;;;;;;5090357;28;20032;-68
2023/04/23 09:25:14;;;;;;;15.45;12.23;;;32.10;46.50;;;;;;5090511;28;20040;-69
2023/04/23 09:27:40;;;;;;;15.07;11.02;;;31.30;45.90;;;;;;5089966;28;20458;-69
2023/04/23 09:30:08;;;;;;;14.70;10.50;;;30.10;46.10;;;;;;5089925;28;20119;-69
2023/04/23 09:32:36;;;;;;;14.98;11.52;;;30.90;46.60;;;;;;5048890;28;1174537;-70
2023/04/23 09:35:03;;;;;;;;;;;31.20;45.10;;;;;;5090827;28;20428;-69
2023/04/23 09:37:29;;;;;;;16.50;10.65;;;29.80;45.80;;;;;;5091177;28;19908;-69
2023/04/23 09:39:58;;;;;;;15.85;11.43;;;30.20;46.10;;;;;;5090674;28;20048;-69
2023/04/23 09:42:26;;;;;;;14.63;10.65;;;29.70;46.20;;;;;;5090723;28;20032;-69
2023/04/23 09:45:03;;;;;;;14.32;10.02;;;30.60;46.10;;;;;;5089729;28;20346;-72
2023/04/23 09:47:32;;;;;;;11.85;9.18;;;31.30;44.70;;;;;;5090553;28;20319;-68
2023/04/23 09:49:59;;;;;;;15.15;9.75;;;31.60;44.70;;;;;;5090644;28;20436;-68
2023/04/23 09:52:25;;;;;;;11.55;8.30;;;31.30;42.40;;;;;;5089666;28;20032;-70
2023/04/23 09:54:50;;;;;;;12.95;9.63;;;31.70;42.70;;;;;;5090379;28;20028;-70
2023/04/23 09:57:16;;;;;;;11.88;8.73;;;31.60;42.70;;;;;;5090498;28;20486;-69
2023/04/23 09:59:42;;;;;;;13.07;8.80;;;30.80;43.00;;;;;;5090684;28;20082;-68
2023/04/23 10:02:10;;;;;;;11.57;8.80;;;31.50;42.00;;;;;;5090358;28;20032;-68
2023/04/23 10:04:37;;;;;;;12.27;8.80;;;32.50;42.50;;;;;;5089826;28;20101;-68
2023/04/23 10:07:07;;;;;;;10.65;7.88;;;33.10;40.80;;;;;;5090365;28;20024;-68
2023/04/23 10:09:33;;;;;;;10.35;7.32;;;33.20;40.00;;;;;;5090298;28;20052;-68
2023/04/23 10:12:03;;;;;;;8.82;6.97;;;32.90;40.50;;;;;;5089195;28;20036;-69
2023/04/23 10:14:30;;;;;;;8.93;6.47;;;32.90;39.30;;;;;;5090313;28;20111;-69
2023/04/23 10:17:00;;;;;;;10.23;6.75;;;32.80;39.10;;;;;;5089238;28;20035;-70
2023/04/23 10:19:27;;;;;;;8.68;6.30;;;31.80;40.20;;;;;;5090620;28;20020;-69
2023/04/23 10:22:07;;;;;;;9.55;7.00;;;31.80;40.40;;;;;;5090385;28;20132;-70
2023/04/23 10:24:34;;;;;;;9.00;7.00;;;31.00;40.30;;;;;;5090489;28;20024;-69
2023/04/23 10:27:03;;;;;;;14.00;7.25;;;30.30;41.10;;;;;;5090121;28;20166;-70
2023/04/23 10:29:37;;;;;;;8.48;6.68;;;29.60;41.90;;;;;;5089006;28;20039;-70
2023/04/23 10:32:05;;;;;;;8.45;6.47;;;30.10;43.30;;;;;;5092361;28;20040;-69
2023/04/23 10:34:31;;;;;;;;;;;30.50;42.20;;;;;;5094613;28;20442;-71
2023/04/23 10:36:59;;;;;;;9.60;7.82;;;31.30;41.70;;;;;;5093685;28;20007;-71
2023/04/23 10:39:30;;;;;;;10.63;7.75;;;31.50;40.90;;;;;;5093564;28;20038;-69
2023/04/23 10:41:57;;;;;;;11.32;7.75;;;30.50;41.70;;;;;;5093565;28;20070;-70
2023/04/23 10:44:35;;;;;;;12.23;8.05;;;29.90;42.00;;;;;;5093498;28;20457;-71
2023/04/23 10:47:03;;;;;;;11.52;7.10;;;28.70;42.90;;;;;;5093715;28;20042;-70
2023/04/23 10:49:31;;;;;;;9.52;6.78;;;28.60;43.90;;;;;;5094197;28;20031;-71
2023/04/23 10:52:08;;;;;;;9.75;7.60;;;28.30;44.50;;;;;;5092212;28;20039;-70
2023/04/23 10:54:35;;;;;;;9.82;7.25;;;27.50;45.20;;;;;;5093321;28;20102;-71
2023/04/23 10:57:03;;;;;;;8.93;6.78;;;27.10;45.60;;;;;;5093362;28;20386;-72
2023/04/23 10:59:33;;;;;;;8.15;6.55;;;26.70;46.10;;;;;;5092388;28;20118;-70
2023/04/23 11:02:11;;;;;;;8.65;6.40;;;26.60;47.00;;;;;;5092037;28;20028;-70
2023/04/23 11:04:53;;;;;;;9.68;6.30;;;26.70;46.80;;;;;;5093798;28;20028;-71
2023/04/23 11:07:19;;;;;;;11.85;7.55;;;26.20;47.10;;;;;;5093087;28;20125;-70
2023/04/23 11:09:49;;;;;;;11.68;6.70;;;25.60;47.90;;;;;;5093036;28;20032;-70
2023/04/23 11:12:26;;;;;;;12.98;6.68;;;25.80;48.10;;;;;;5092690;28;20058;-70
2023/04/23 11:14:58;;;;;;;;;;;25.80;48.30;;;;;;5093323;28;20040;-68
2023/04/23 11:17:43;;;;;;;10.38;6.85;;;25.40;48.70;;;;;;5091735;28;19923;-70
2023/04/23 11:20:12;;;;;;;11.20;6.13;;;24.70;49.60;;;;;;5092751;28;20028;-70
2023/04/23 11:22:38;;;;;;;10.35;6.60;;;24.70;49.90;;;;;;5093381;28;20031;-70
2023/04/23 11:25:08;;;;;;;8.93;5.95;;;24.10;50.00;;;;;;5092849;28;20068;-68
2023/04/23 11:27:41;;;;;;;7.20;5.45;;;24.10;49.90;;;;;;5091489;28;20028;-69
2023/04/23 11:30:15;;;;;;;8.55;5.38;;;23.80;50.20;;;;;;5092566;28;20032;-68
2023/04/23 11:32:43;;;;;;;10.27;4.88;;;23.40;50.20;;;;;;5092952;28;20040;-69
2023/04/23 11:35:09;;;;;;;;;;;23.50;50.00;;;;;;5093056;28;20384;-69
2023/04/23 11:37:40;;;;;;;6.80;4.88;;;23.40;50.10;;;;;;5092906;28;19904;-68
2023/04/23 11:40:08;;;;;;;8.02;4.95;;;23.30;50.50;;;;;;5092335;28;20134;-70
2023/04/23 11:42:45;;;;;;;8.20;5.18;;;23.20;50.60;;;;;;5091327;28;20068;-69
2023/04/23 11:45:21;;;;;;;9.93;5.20;;;23.10;50.70;;;;;;5092288;28;20370;-70
2023/04/23 11:47:49;;;;;;;8.27;5.18;;;23.20;50.80;;;;;;5092405;28;20036;-69
2023/04/23 11:50:20;;;;;;;8.52;5.10;;;22.90;51.60;;;;;;5092421;28;20029;-69
2023/04/23 11:52:46;;;;;;;5.82;4.47;;;22.70;52.00;;;;;;5092121;28;20031;-69
2023/04/23 11:55:12;;;;;;;8.20;4.50;;;22.80;51.80;;;;;;5092674;28;20012;-69
2023/04/23 11:57:45;;;;;;;6.35;4.53;;;23.00;51.90;;;;;;5092419;28;20028;-69
2023/04/23 12:00:17;;;;;;;6.82;3.90;;;23.10;51.50;;;;;;5090910;28;20111;-68
2023/04/23 12:02:59;;;;;;;7.45;4.13;;;23.00;51.70;;;;;;5092038;28;20035;-69
2023/04/23 12:05:31;;;;;;;5.63;4.30;;;22.90;51.50;;;;;;5091936;28;20057;-70
2023/04/23 12:08:08;;;;;;;6.35;4.05;;;22.70;51.50;;;;;;5091868;28;20612;-69
2023/04/23 12:10:41;;;;;;;6.07;3.63;;;22.60;51.70;;;;;;5092452;28;20054;-70
2023/04/23 12:13:11;;;;;;;7.63;3.63;;;22.40;51.80;;;;;;5092191;28;20063;-69
2023/04/23 12:15:50;;;;;;;4.70;3.55;;;22.40;52.10;;;;;;5091792;28;20030;-69
2023/04/23 12:18:17;;;;;;;6.05;3.60;;;22.40;52.20;;;;;;5091607;28;20036;-68
2023/04/23 12:20:43;;;;;;;7.10;3.65;;;22.30;52.80;;;;;;5091585;28;20420;-70
2023/04/23 12:23:09;;;;;;;7.13;4.35;;;22.30;52.60;;;;;;5090331;28;20040;-70
2023/04/23 12:25:35;;;;;;;7.03;4.00;;;22.30;52.70;;;;;;5091276;28;20050;-69
2023/04/23 12:28:06;;;;;;;7.07;3.63;;;22.20;53.20;;;;;;5091460;28;20454;-69
2023/04/23 12:30:33;;;;;;;4.97;3.42;;;22.30;53.30;;;;;;5090400;28;20093;-69
2023/04/23 12:33:00;;;;;;;5.10;3.83;;;22.30;53.00;;;;;;5091263;28;20484;-69
2023/04/23 12:35:50;;;;;;;7.45;4.18;;;22.40;53.30;;;;;;5091412;28;20445;-69